sensor_id;sensor_type;location;lat;lon;timestamp;pressure;altitude;pressure_sealevel;temperature;humidity
29239;BME280;16267;48.194;11.546;2022-12-24T00:00:08;95388.47;;;11.36;100.00
29239;BME280;16267;48.194;11.546;2022-12-24T00:05:09;95411.44;;;11.37;100.00
29239;BME280;16267;48.194;11.546;2022-12-24T00:07:35;95420.69;;;11.36;100.00
29239;BME280;16267;48.194;11.546;2022-12-24T00:10:03;95422.59;;;11.36;100.00
29239;BME280;16267;48.194;11.546;2022-12-24T00:12:29;95429.91;;;11.35;100.00
29239;BME280;16267;48.194;11.546;2022-12-24T00:14:55;95431.94;;;11.31;100.00
29239;BME280;16267;48.194;11.546;2022-12-24T00:17:21;95421.94;;;11.32;100.00
29239;BME280;16267;48.194;11.546;2022-12-24T00:24:52;95437.66;;;11.33;100.00
29239;BME280;16267;48.194;11.546;2022-12-24T00:27:18;95448.41;;;11.33;100.00
29239;BME280;16267;48.194;11.546;2022-12-24T00:29:43;95449.16;;;11.34;100.00
29239;BME280;16267;48.194;11.546;2022-12-24T00:32:09;95438.81;;;11.32;100.00
29239;BME280;16267;48.194;11.546;2022-12-24T00:34:36;95448.41;;;11.33;100.00
29239;BME280;16267;48.194;11.546;2022-12-24T00:37:03;95440.34;;;11.33;100.00
29239;BME280;16267;48.194;11.546;2022-12-24T00:39:29;95438.41;;;11.34;100.00
29239;BME280;16267;48.194;11.546;2022-12-24T00:41:55;95449.91;;;11.34;100.00
29239;BME280;16267;48.194;11.546;2022-12-24T00:44:20;95457.63;;;11.32;100.00
29239;BME280;16267;48.194;11.546;2022-12-24T00:46:46;95468.38;;;11.32;100.00
29239;BME280;16267;48.194;11.546;2022-12-24T00:49:12;95466.88;;;11.31;100.00
29239;BME280;16267;48.194;11.546;2022-12-24T00:51:38;95485.66;;;11.31;100.00
29239;BME280;16267;48.194;11.546;2022-12-24T00:54:04;95477.59;;;11.31;100.00
29239;BME280;16267;48.194;11.546;2022-12-24T00:56:31;95471.47;;;11.31;100.00
29239;BME280;16267;48.194;11.546;2022-12-24T00:58:57;95474.56;;;11.29;100.00
29239;BME280;16267;48.194;11.546;2022-12-24T01:01:24;95468.44;;;11.29;100.00
29239;BME280;16267;48.194;11.546;2022-12-24T01:03:51;95465.41;;;11.27;100.00
29239;BME280;16267;48.194;11.546;2022-12-24T01:06:20;95468.84;;;11.27;100.00
29239;BME280;16267;48.194;11.546;2022-12-24T01:08:49;95477.09;;;11.20;100.00
29239;BME280;16267;48.194;11.546;2022-12-24T01:11:16;95477.22;;;11.13;100.00
29239;BME280;16267;48.194;11.546;2022-12-24T01:13:41;95481.09;;;11.12;100.00
29239;BME280;16267;48.194;11.546;2022-12-24T01:16:18;95489.28;;;11.05;100.00
29239;BME280;16267;48.194;11.546;2022-12-24T01:18:44;95488.13;;;11.06;100.00
29239;BME280;16267;48.194;11.546;2022-12-24T01:21:10;95489.97;;;11.09;100.00
29239;BME280;16267;48.194;11.546;2022-12-24T01:23:36;95498.78;;;11.09;100.00
29239;BME280;16267;48.194;11.546;2022-12-24T01:26:03;95496.50;;;11.08;100.00
29239;BME280;16267;48.194;11.546;2022-12-24T01:28:30;95497.34;;;11.05;99.73
29239;BME280;16267;48.194;11.546;2022-12-24T01:30:56;95503.25;;;10.96;100.00
29239;BME280;16267;48.194;11.546;2022-12-24T01:33:21;95512.81;;;10.97;100.00
29239;BME280;16267;48.194;11.546;2022-12-24T01:35:47;95506.34;;;10.94;99.68
29239;BME280;16267;48.194;11.546;2022-12-24T01:38:13;95505.59;;;10.94;100.00
29239;BME280;16267;48.194;11.546;2022-12-24T01:40:40;95512.91;;;10.93;99.69
29239;BME280;16267;48.194;11.546;2022-12-24T01:43:29;95524.88;;;10.89;99.82
29239;BME280;16267;48.194;11.546;2022-12-24T01:48:43;95525.97;;;10.91;99.50
29239;BME280;16267;48.194;11.546;2022-12-24T01:51:47;95537.22;;;10.86;99.28
29239;BME280;16267;48.194;11.546;2022-12-24T01:54:35;95535.75;;;10.82;98.99
29239;BME280;16267;48.194;11.546;2022-12-24T01:57:24;95540.78;;;10.80;99.23
29239;BME280;16267;48.194;11.546;2022-12-24T01:59:55;95541.19;;;10.78;99.55
29239;BME280;16267;48.194;11.546;2022-12-24T02:02:23;95543.88;;;10.78;99.88
29239;BME280;16267;48.194;11.546;2022-12-24T02:05:00;95544.28;;;10.77;99.34
29239;BME280;16267;48.194;11.546;2022-12-24T02:07:27;95539.25;;;10.79;99.12
29239;BME280;16267;48.194;11.546;2022-12-24T02:09:57;95540.22;;;10.68;99.08
29239;BME280;16267;48.194;11.546;2022-12-24T02:12:25;95545.19;;;10.70;99.60
29239;BME280;16267;48.194;11.546;2022-12-24T02:14:52;95551.69;;;10.69;99.27
29239;BME280;16267;48.194;11.546;2022-12-24T02:28:59;95547.63;;;10.61;99.19
29239;BME280;16267;48.194;11.546;2022-12-24T02:34:29;95551.84;;;10.62;99.22
29239;BME280;16267;48.194;11.546;2022-12-24T02:42:57;95592.91;;;10.59;98.24
29239;BME280;16267;48.194;11.546;2022-12-24T02:45:28;95594.13;;;10.54;97.36
29239;BME280;16267;48.194;11.546;2022-12-24T02:47:55;95587.59;;;10.55;97.35
29239;BME280;16267;48.194;11.546;2022-12-24T02:50:22;95587.56;;;10.59;97.24
29239;BME280;16267;48.194;11.546;2022-12-24T02:52:48;95601.44;;;10.54;96.17
29239;BME280;16267;48.194;11.546;2022-12-24T03:01:26;95599.84;;;10.56;95.78
29239;BME280;16267;48.194;11.546;2022-12-24T03:06:57;95592.97;;;10.55;94.61
29239;BME280;16267;48.194;11.546;2022-12-24T03:09:35;95584.50;;;10.57;94.31
29239;BME280;16267;48.194;11.546;2022-12-24T03:12:11;95590.34;;;10.52;93.34
29239;BME280;16267;48.194;11.546;2022-12-24T03:14:39;95593.41;;;10.50;93.05
29239;BME280;16267;48.194;11.546;2022-12-24T03:17:06;95603.41;;;10.49;92.64
29239;BME280;16267;48.194;11.546;2022-12-24T03:19:33;95608.38;;;10.51;92.01
29239;BME280;16267;48.194;11.546;2022-12-24T03:22:03;95602.19;;;10.54;91.99
29239;BME280;16267;48.194;11.546;2022-12-24T03:24:30;95603.75;;;10.52;91.40
29239;BME280;16267;48.194;11.546;2022-12-24T03:26:56;95599.16;;;10.52;92.55
29239;BME280;16267;48.194;11.546;2022-12-24T03:29:21;95599.56;;;10.51;91.63
29239;BME280;16267;48.194;11.546;2022-12-24T03:31:50;95597.63;;;10.51;91.49
29239;BME280;16267;48.194;11.546;2022-12-24T03:34:17;95604.13;;;10.54;91.87
29239;BME280;16267;48.194;11.546;2022-12-24T03:36:44;95606.09;;;10.49;91.09
29239;BME280;16267;48.194;11.546;2022-12-24T03:39:11;95610.63;;;10.53;91.45
29239;BME280;16267;48.194;11.546;2022-12-24T03:41:37;95625.16;;;10.55;91.14
29239;BME280;16267;48.194;11.546;2022-12-24T03:44:04;95625.56;;;10.54;90.28
29239;BME280;16267;48.194;11.546;2022-12-24T03:46:29;95625.97;;;10.52;90.06
29239;BME280;16267;48.194;11.546;2022-12-24T03:48:56;95621.38;;;10.53;90.04
29239;BME280;16267;48.194;11.546;2022-12-24T03:51:23;95620.66;;;10.48;89.99
29239;BME280;16267;48.194;11.546;2022-12-24T03:53:52;95617.63;;;10.46;90.09
29239;BME280;16267;48.194;11.546;2022-12-24T03:56:18;95603.00;;;10.51;90.61
29239;BME280;16267;48.194;11.546;2022-12-24T03:58:45;95604.88;;;10.54;90.76
29239;BME280;16267;48.194;11.546;2022-12-24T04:01:10;95621.72;;;10.55;90.01
29239;BME280;16267;48.194;11.546;2022-12-24T04:03:36;95633.22;;;10.55;89.99
29239;BME280;16267;48.194;11.546;2022-12-24T04:06:08;95634.38;;;10.54;89.96
29239;BME280;16267;48.194;11.546;2022-12-24T04:08:35;95639.75;;;10.54;90.01
29239;BME280;16267;48.194;11.546;2022-12-24T04:11:04;95642.06;;;10.52;89.63
29239;BME280;16267;48.194;11.546;2022-12-24T04:13:30;95650.53;;;10.51;89.33
29239;BME280;16267;48.194;11.546;2022-12-24T04:16:05;95651.31;;;10.51;89.82
29239;BME280;16267;48.194;11.546;2022-12-24T04:18:31;95668.09;;;10.55;89.84
29239;BME280;16267;48.194;11.546;2022-12-24T04:20:57;95669.66;;;10.53;89.39
29239;BME280;16267;48.194;11.546;2022-12-24T04:23:23;95665.84;;;10.54;89.78
29239;BME280;16267;48.194;11.546;2022-12-24T04:25:49;95676.56;;;10.54;89.79
29239;BME280;16267;48.194;11.546;2022-12-24T04:28:16;95675.53;;;10.44;89.56
29239;BME280;16267;48.194;11.546;2022-12-24T04:30:42;95677.09;;;10.45;89.83
29239;BME280;16267;48.194;11.546;2022-12-24T04:33:08;95689.63;;;10.52;90.74
29239;BME280;16267;48.194;11.546;2022-12-24T04:35:39;95698.13;;;10.46;89.80
29239;BME280;16267;48.194;11.546;2022-12-24T04:38:07;95680.88;;;10.47;90.06
29239;BME280;16267;48.194;11.546;2022-12-24T04:40:33;95681.19;;;10.53;90.54
29239;BME280;16267;48.194;11.546;2022-12-24T04:42:59;95680.06;;;10.51;88.89
29239;BME280;16267;48.194;11.546;2022-12-24T04:45:25;95690.44;;;10.48;89.16
29239;BME280;16267;48.194;11.546;2022-12-24T04:47:50;95681.56;;;10.52;89.39
29239;BME280;16267;48.194;11.546;2022-12-24T04:50:16;95688.41;;;10.56;88.74
29239;BME280;16267;48.194;11.546;2022-12-24T04:52:42;95696.03;;;10.58;88.50
29239;BME280;16267;48.194;11.546;2022-12-24T04:55:08;95700.28;;;10.55;88.71
29239;BME280;16267;48.194;11.546;2022-12-24T04:57:34;95706.38;;;10.59;89.08
29239;BME280;16267;48.194;11.546;2022-12-24T05:00:04;95710.56;;;10.60;88.74
29239;BME280;16267;48.194;11.546;2022-12-24T05:02:30;95709.47;;;10.58;88.06
29239;BME280;16267;48.194;11.546;2022-12-24T05:04:56;95702.97;;;10.55;87.69
29239;BME280;16267;48.194;11.546;2022-12-24T05:07:22;95714.47;;;10.56;88.16
29239;BME280;16267;48.194;11.546;2022-12-24T05:09:48;95712.97;;;10.55;88.02
29239;BME280;16267;48.194;11.546;2022-12-24T05:12:13;95712.16;;;10.58;88.82
29239;BME280;16267;48.194;11.546;2022-12-24T05:14:39;95705.25;;;10.57;87.85
29239;BME280;16267;48.194;11.546;2022-12-24T05:17:05;95703.34;;;10.57;87.64
29239;BME280;16267;48.194;11.546;2022-12-24T05:19:31;95708.78;;;10.50;86.76
29239;BME280;16267;48.194;11.546;2022-12-24T05:21:57;95711.03;;;10.55;87.39
29239;BME280;16267;48.194;11.546;2022-12-24T05:24:41;95716.00;;;10.57;87.52
29239;BME280;16267;48.194;11.546;2022-12-24T05:27:26;95727.84;;;10.59;87.09
29239;BME280;16267;48.194;11.546;2022-12-24T05:29:52;95722.47;;;10.59;87.07
29239;BME280;16267;48.194;11.546;2022-12-24T05:32:17;95721.38;;;10.57;86.51
29239;BME280;16267;48.194;11.546;2022-12-24T05:34:43;95721.81;;;10.52;86.63
29239;BME280;16267;48.194;11.546;2022-12-24T05:37:09;95709.53;;;10.54;87.13
29239;BME280;16267;48.194;11.546;2022-12-24T05:39:35;95721.00;;;10.55;86.83
29239;BME280;16267;48.194;11.546;2022-12-24T05:42:00;95715.25;;;10.56;86.66
29239;BME280;16267;48.194;11.546;2022-12-24T05:44:26;95724.06;;;10.57;87.04
29239;BME280;16267;48.194;11.546;2022-12-24T05:46:52;95730.94;;;10.58;86.63
29239;BME280;16267;48.194;11.546;2022-12-24T05:49:18;95734.38;;;10.58;86.62
29239;BME280;16267;48.194;11.546;2022-12-24T05:51:43;95737.41;;;10.60;86.54
29239;BME280;16267;48.194;11.546;2022-12-24T05:54:09;95739.78;;;10.55;85.73
29239;BME280;16267;48.194;11.546;2022-12-24T05:56:35;95732.50;;;10.55;86.42
29239;BME280;16267;48.194;11.546;2022-12-24T05:59:01;95747.47;;;10.53;85.96
29239;BME280;16267;48.194;11.546;2022-12-24T06:01:26;95732.16;;;10.53;85.59
29239;BME280;16267;48.194;11.546;2022-12-24T06:03:52;95738.69;;;10.52;85.47
29239;BME280;16267;48.194;11.546;2022-12-24T06:06:27;95751.72;;;10.50;84.98
29239;BME280;16267;48.194;11.546;2022-12-24T06:08:54;95755.19;;;10.51;85.25
29239;BME280;16267;48.194;11.546;2022-12-24T06:11:26;95764.38;;;10.49;84.32
29239;BME280;16267;48.194;11.546;2022-12-24T06:13:52;95756.75;;;10.48;83.63
29239;BME280;16267;48.194;11.546;2022-12-24T06:16:20;95778.22;;;10.48;84.25
29239;BME280;16267;48.194;11.546;2022-12-24T06:18:46;95787.13;;;10.41;83.22
29239;BME280;16267;48.194;11.546;2022-12-24T06:21:12;95778.22;;;10.48;83.94
29239;BME280;16267;48.194;11.546;2022-12-24T06:23:41;95779.44;;;10.43;83.15
29239;BME280;16267;48.194;11.546;2022-12-24T06:26:13;95765.19;;;10.46;83.43
29239;BME280;16267;48.194;11.546;2022-12-24T06:28:39;95765.19;;;10.46;83.13
29239;BME280;16267;48.194;11.546;2022-12-24T06:31:08;95768.25;;;10.48;83.68
29239;BME280;16267;48.194;11.546;2022-12-24T06:33:35;95775.13;;;10.49;83.51
29239;BME280;16267;48.194;11.546;2022-12-24T06:36:01;95769.81;;;10.46;83.18
29239;BME280;16267;48.194;11.546;2022-12-24T06:38:29;95784.03;;;10.43;84.32
29239;BME280;16267;48.194;11.546;2022-12-24T06:40:55;95787.16;;;10.38;83.57
29239;BME280;16267;48.194;11.546;2022-12-24T06:43:23;95772.19;;;10.40;84.56
29239;BME280;16267;48.194;11.546;2022-12-24T06:45:48;95775.25;;;10.39;84.35
29239;BME280;16267;48.194;11.546;2022-12-24T06:48:15;95785.56;;;10.44;85.15
29239;BME280;16267;48.194;11.546;2022-12-24T06:50:41;95787.09;;;10.45;84.56
29239;BME280;16267;48.194;11.546;2022-12-24T06:53:08;95784.34;;;10.48;85.26
29239;BME280;16267;48.194;11.546;2022-12-24T06:55:34;95791.66;;;10.48;84.54
29239;BME280;16267;48.194;11.546;2022-12-24T06:57:59;95805.13;;;10.41;84.90
29239;BME280;16267;48.194;11.546;2022-12-24T07:00:25;95807.13;;;10.37;85.71
29239;BME280;16267;48.194;11.546;2022-12-24T07:02:52;95801.75;;;10.37;85.81
29239;BME280;16267;48.194;11.546;2022-12-24T07:05:18;95797.94;;;10.34;85.85
29239;BME280;16267;48.194;11.546;2022-12-24T07:07:44;95782.97;;;10.37;85.99
29239;BME280;16267;48.194;11.546;2022-12-24T07:10:13;95787.22;;;10.34;86.06
29239;BME280;16267;48.194;11.546;2022-12-24T07:12:39;95795.59;;;10.36;85.78
29239;BME280;16267;48.194;11.546;2022-12-24T07:15:06;95794.16;;;10.28;85.49
29239;BME280;16267;48.194;11.546;2022-12-24T07:17:32;95809.16;;;10.25;85.09
29239;BME280;16267;48.194;11.546;2022-12-24T07:19:57;95807.59;;;10.28;85.33
29239;BME280;16267;48.194;11.546;2022-12-24T07:22:24;95816.81;;;10.23;84.93
29239;BME280;16267;48.194;11.546;2022-12-24T07:24:50;95825.25;;;10.25;84.14
29239;BME280;16267;48.194;11.546;2022-12-24T07:27:17;95828.69;;;10.26;84.30
29239;BME280;16267;48.194;11.546;2022-12-24T07:29:42;95827.16;;;10.29;84.23
29239;BME280;16267;48.194;11.546;2022-12-24T07:32:08;95827.53;;;10.27;83.84
29239;BME280;16267;48.194;11.546;2022-12-24T07:34:34;95844.38;;;10.27;83.12
29239;BME280;16267;48.194;11.546;2022-12-24T07:37:00;95844.00;;;10.29;82.89
29239;BME280;16267;48.194;11.546;2022-12-24T07:39:26;95855.44;;;10.33;82.62
29239;BME280;16267;48.194;11.546;2022-12-24T07:41:56;95851.19;;;10.36;83.25
29239;BME280;16267;48.194;11.546;2022-12-24T07:44:22;95855.75;;;10.39;83.15
29239;BME280;16267;48.194;11.546;2022-12-24T07:46:47;95862.66;;;10.40;83.01
29239;BME280;16267;48.194;11.546;2022-12-24T07:49:14;95871.13;;;10.35;81.68
29239;BME280;16267;48.194;11.546;2022-12-24T07:51:40;95875.00;;;10.34;81.28
29239;BME280;16267;48.194;11.546;2022-12-24T07:54:07;95881.91;;;10.31;80.38
29239;BME280;16267;48.194;11.546;2022-12-24T07:56:33;95881.56;;;10.25;79.67
29239;BME280;16267;48.194;11.546;2022-12-24T07:58:59;95880.03;;;10.24;80.38
29239;BME280;16267;48.194;11.546;2022-12-24T08:01:25;95886.94;;;10.25;79.71
29239;BME280;16267;48.194;11.546;2022-12-24T08:03:51;95886.25;;;10.18;78.12
29239;BME280;16267;48.194;11.546;2022-12-24T08:06:20;95897.34;;;10.16;78.36
29239;BME280;16267;48.194;11.546;2022-12-24T08:08:46;95894.66;;;10.16;77.15
29239;BME280;16267;48.194;11.546;2022-12-24T08:11:12;95902.75;;;10.13;77.43
29239;BME280;16267;48.194;11.546;2022-12-24T08:13:38;95890.97;;;10.03;76.34
29239;BME280;16267;48.194;11.546;2022-12-24T08:16:05;95900.13;;;10.05;77.35
29239;BME280;16267;48.194;11.546;2022-12-24T08:18:31;95902.44;;;10.07;77.39
29239;BME280;16267;48.194;11.546;2022-12-24T08:20:58;95899.47;;;9.94;76.21
29239;BME280;16267;48.194;11.546;2022-12-24T08:23:24;95907.84;;;10.00;76.31
29239;BME280;16267;48.194;11.546;2022-12-24T08:25:50;95910.56;;;9.96;75.95
29239;BME280;16267;48.194;11.546;2022-12-24T08:28:18;95918.66;;;9.89;75.78
29239;BME280;16267;48.194;11.546;2022-12-24T08:30:46;95928.59;;;9.96;76.29
29239;BME280;16267;48.194;11.546;2022-12-24T08:33:12;95919.72;;;10.02;76.09
29239;BME280;16267;48.194;11.546;2022-12-24T08:35:38;95915.88;;;10.03;76.22
29239;BME280;16267;48.194;11.546;2022-12-24T08:38:04;95913.97;;;10.04;75.96
29239;BME280;16267;48.194;11.546;2022-12-24T08:40:30;95921.22;;;10.07;76.18
29239;BME280;16267;48.194;11.546;2022-12-24T08:42:56;95924.22;;;10.13;76.48
29239;BME280;16267;48.194;11.546;2022-12-24T08:45:22;95928.03;;;10.15;76.33
29239;BME280;16267;48.194;11.546;2022-12-24T08:47:48;95933.75;;;10.17;75.82
29239;BME280;16267;48.194;11.546;2022-12-24T08:50:14;95926.09;;;10.16;75.60
29239;BME280;16267;48.194;11.546;2022-12-24T08:52:40;95930.75;;;10.08;74.60
29239;BME280;16267;48.194;11.546;2022-12-24T08:55:06;95941.16;;;10.02;74.71
29239;BME280;16267;48.194;11.546;2022-12-24T08:57:35;95954.09;;;10.11;76.01
29239;BME280;16267;48.194;11.546;2022-12-24T09:00:11;95960.91;;;10.19;76.65
29239;BME280;16267;48.194;11.546;2022-12-24T09:02:37;95966.66;;;10.21;75.84
29239;BME280;16267;48.194;11.546;2022-12-24T09:05:03;95977.03;;;10.19;75.80
29239;BME280;16267;48.194;11.546;2022-12-24T09:07:30;95978.19;;;10.18;74.79
29239;BME280;16267;48.194;11.546;2022-12-24T09:09:55;95987.38;;;10.21;74.84
29239;BME280;16267;48.194;11.546;2022-12-24T09:12:21;95988.53;;;10.20;73.86
29239;BME280;16267;48.194;11.546;2022-12-24T09:14:49;95989.25;;;10.24;74.08
29239;BME280;16267;48.194;11.546;2022-12-24T09:17:14;95992.78;;;10.14;72.99
29239;BME280;16267;48.194;11.546;2022-12-24T09:19:40;95995.44;;;10.17;73.47
29239;BME280;16267;48.194;11.546;2022-12-24T09:22:06;96011.56;;;10.14;72.82
29239;BME280;16267;48.194;11.546;2022-12-24T09:24:31;96010.00;;;10.16;73.01
29239;BME280;16267;48.194;11.546;2022-12-24T09:26:57;96012.34;;;10.11;73.26
29239;BME280;16267;48.194;11.546;2022-12-24T09:29:31;96011.63;;;10.03;72.41
29239;BME280;16267;48.194;11.546;2022-12-24T09:31:56;96006.19;;;10.14;73.71
29239;BME280;16267;48.194;11.546;2022-12-24T09:34:24;96009.66;;;10.14;72.76
29239;BME280;16267;48.194;11.546;2022-12-24T09:36:50;96001.59;;;10.14;72.38
29239;BME280;16267;48.194;11.546;2022-12-24T09:39:19;95992.69;;;10.24;72.96
29239;BME280;16267;48.194;11.546;2022-12-24T09:42:04;95997.66;;;10.26;72.51
29239;BME280;16267;48.194;11.546;2022-12-24T09:44:55;95997.66;;;10.26;72.54
29239;BME280;16267;48.194;11.546;2022-12-24T09:47:49;95994.28;;;10.18;71.12
29239;BME280;16267;48.194;11.546;2022-12-24T09:53:25;95988.84;;;10.29;71.81
29239;BME280;16267;48.194;11.546;2022-12-24T09:56:08;95991.88;;;10.35;72.44
29239;BME280;16267;48.194;11.546;2022-12-24T09:58:42;95991.56;;;10.22;70.47
29239;BME280;16267;48.194;11.546;2022-12-24T10:01:14;95991.53;;;10.25;71.80
29239;BME280;16267;48.194;11.546;2022-12-24T10:03:42;95985.41;;;10.25;70.57
29239;BME280;16267;48.194;11.546;2022-12-24T10:06:17;95979.22;;;10.35;72.28
29239;BME280;16267;48.194;11.546;2022-12-24T10:15:34;95985.69;;;10.38;70.02
29239;BME280;16267;48.194;11.546;2022-12-24T10:18:10;95982.31;;;10.34;69.24
29239;BME280;16267;48.194;11.546;2022-12-24T10:21:12;95997.28;;;10.31;67.99
29239;BME280;16267;48.194;11.546;2022-12-24T10:24:23;95996.38;;;10.41;68.21
29239;BME280;16267;48.194;11.546;2022-12-24T10:26:56;96004.44;;;10.45;68.42
29239;BME280;16267;48.194;11.546;2022-12-24T10:29:35;95999.06;;;10.41;67.14
29239;BME280;16267;48.194;11.546;2022-12-24T10:34:59;96005.13;;;10.49;68.65
29239;BME280;16267;48.194;11.546;2022-12-24T10:37:28;95999.16;;;10.34;66.38
29239;BME280;16267;48.194;11.546;2022-12-24T10:39:58;96006.06;;;10.32;67.51
29239;BME280;16267;48.194;11.546;2022-12-24T10:42:39;96006.41;;;10.37;68.23
29239;BME280;16267;48.194;11.546;2022-12-24T10:45:16;95996.47;;;10.34;66.78
29239;BME280;16267;48.194;11.546;2022-12-24T10:47:44;95993.03;;;10.34;66.28
29239;BME280;16267;48.194;11.546;2022-12-24T10:50:30;96003.44;;;10.66;66.66
29239;BME280;16267;48.194;11.546;2022-12-24T10:56:08;96009.09;;;11.09;64.67
29239;BME280;16267;48.194;11.546;2022-12-24T10:58:35;96010.84;;;11.23;65.87
29239;BME280;16267;48.194;11.546;2022-12-24T11:01:02;96007.78;;;11.52;65.36
29239;BME280;16267;48.194;11.546;2022-12-24T11:03:32;96006.28;;;11.47;63.32
29239;BME280;16267;48.194;11.546;2022-12-24T11:06:04;96002.09;;;11.46;62.25
29239;BME280;16267;48.194;11.546;2022-12-24T11:08:30;96002.69;;;11.84;61.81
29239;BME280;16267;48.194;11.546;2022-12-24T11:11:08;96005.94;;;11.99;63.54
29239;BME280;16267;48.194;11.546;2022-12-24T11:13:42;96002.66;;;11.88;61.60
29239;BME280;16267;48.194;11.546;2022-12-24T11:16:34;96007.13;;;11.98;61.67
29239;BME280;16267;48.194;11.546;2022-12-24T11:19:05;96001.03;;;11.94;61.78
29239;BME280;16267;48.194;11.546;2022-12-24T11:21:40;95996.91;;;12.13;60.87
29239;BME280;16267;48.194;11.546;2022-12-24T11:26:40;96000.31;;;12.17;59.53
29239;BME280;16267;48.194;11.546;2022-12-24T11:29:23;95991.97;;;12.32;57.43
29239;BME280;16267;48.194;11.546;2022-12-24T11:31:50;95993.91;;;12.31;58.04
29239;BME280;16267;48.194;11.546;2022-12-24T11:34:30;95991.19;;;11.84;58.65
29239;BME280;16267;48.194;11.546;2022-12-24T11:39:42;95987.72;;;11.87;59.68
29239;BME280;16267;48.194;11.546;2022-12-24T11:42:35;95988.22;;;11.75;60.00
29239;BME280;16267;48.194;11.546;2022-12-24T11:45:21;95976.72;;;11.74;61.02
29239;BME280;16267;48.194;11.546;2022-12-24T11:47:49;95975.22;;;11.73;61.57
29239;BME280;16267;48.194;11.546;2022-12-24T11:53:16;95978.56;;;11.81;61.31
29239;BME280;16267;48.194;11.546;2022-12-24T11:55:55;95977.34;;;11.86;62.79
29239;BME280;16267;48.194;11.546;2022-12-24T12:01:22;95971.00;;;11.72;61.99
29239;BME280;16267;48.194;11.546;2022-12-24T12:04:34;95986.63;;;11.54;63.27
29239;BME280;16267;48.194;11.546;2022-12-24T12:07:09;95986.88;;;11.36;63.07
29239;BME280;16267;48.194;11.546;2022-12-24T12:09:43;95990.66;;;11.38;63.97
29239;BME280;16267;48.194;11.546;2022-12-24T12:12:28;95989.16;;;11.37;64.45
29239;BME280;16267;48.194;11.546;2022-12-24T12:15:03;95995.91;;;11.19;63.98
29239;BME280;16267;48.194;11.546;2022-12-24T12:23:18;96000.78;;;11.00;66.06
29239;BME280;16267;48.194;11.546;2022-12-24T12:28:53;95990.34;;;11.06;65.93
29239;BME280;16267;48.194;11.546;2022-12-24T12:31:43;95991.41;;;11.12;66.33
29239;BME280;16267;48.194;11.546;2022-12-24T12:34:39;95998.78;;;11.04;66.98
29239;BME280;16267;48.194;11.546;2022-12-24T12:37:32;96003.00;;;11.05;66.38
29239;BME280;16267;48.194;11.546;2022-12-24T12:40:00;96006.47;;;11.02;66.50
29239;BME280;16267;48.194;11.546;2022-12-24T12:42:37;96000.72;;;11.04;66.90
29239;BME280;16267;48.194;11.546;2022-12-24T12:50:57;96011.03;;;11.09;67.97
29239;BME280;16267;48.194;11.546;2022-12-24T12:56:34;96018.28;;;11.12;68.23
29239;BME280;16267;48.194;11.546;2022-12-24T13:21:27;96029.22;;;10.94;68.53
29239;BME280;16267;48.194;11.546;2022-12-24T13:24:22;96031.50;;;10.96;68.27
29239;BME280;16267;48.194;11.546;2022-12-24T13:30:38;96035.00;;;10.89;67.76
29239;BME280;16267;48.194;11.546;2022-12-24T13:33:08;96039.28;;;10.86;68.01
29239;BME280;16267;48.194;11.546;2022-12-24T13:35:36;96038.53;;;10.82;68.00
29239;BME280;16267;48.194;11.546;2022-12-24T13:40:54;96052.41;;;10.77;67.92
29239;BME280;16267;48.194;11.546;2022-12-24T13:43:20;96054.84;;;10.64;67.91
29239;BME280;16267;48.194;11.546;2022-12-24T13:45:49;96052.19;;;10.61;68.60
29239;BME280;16267;48.194;11.546;2022-12-24T13:50:51;96054.44;;;10.66;68.84
29239;BME280;16267;48.194;11.546;2022-12-24T13:53:30;96055.97;;;10.67;69.21
29239;BME280;16267;48.194;11.546;2022-12-24T13:56:07;96059.00;;;10.69;69.61
29239;BME280;16267;48.194;11.546;2022-12-24T13:58:42;96062.59;;;10.55;68.72
29239;BME280;16267;48.194;11.546;2022-12-24T14:01:10;96070.16;;;10.64;69.01
29239;BME280;16267;48.194;11.546;2022-12-24T14:06:21;96064.78;;;10.67;69.22
29239;BME280;16267;48.194;11.546;2022-12-24T14:08:50;96058.63;;;10.70;69.05
29239;BME280;16267;48.194;11.546;2022-12-24T14:11:20;96068.25;;;10.64;68.47
29239;BME280;16267;48.194;11.546;2022-12-24T14:14:10;96065.97;;;10.63;69.01
29239;BME280;16267;48.194;11.546;2022-12-24T14:16:49;96066.38;;;10.58;68.84
29239;BME280;16267;48.194;11.546;2022-12-24T14:19:22;96063.34;;;10.56;69.14
29239;BME280;16267;48.194;11.546;2022-12-24T14:22:01;96061.88;;;10.51;69.74
29239;BME280;16267;48.194;11.546;2022-12-24T14:24:42;96073.41;;;10.48;69.53
29239;BME280;16267;48.194;11.546;2022-12-24T14:27:17;96076.47;;;10.46;70.51
29239;BME280;16267;48.194;11.546;2022-12-24T14:30:21;96082.97;;;10.49;70.25
29239;BME280;16267;48.194;11.546;2022-12-24T14:32:49;96073.03;;;10.46;70.21
29239;BME280;16267;48.194;11.546;2022-12-24T14:35:21;96079.16;;;10.46;70.52
29239;BME280;16267;48.194;11.546;2022-12-24T14:40:29;96080.69;;;10.47;70.11
29239;BME280;16267;48.194;11.546;2022-12-24T14:44:06;96079.19;;;10.43;70.17
29239;BME280;16267;48.194;11.546;2022-12-24T14:46:26;96088.44;;;10.35;70.34
29239;BME280;16267;48.194;11.546;2022-12-24T14:52:16;96093.09;;;10.23;71.27
29239;BME280;16267;48.194;11.546;2022-12-24T14:54:44;96102.28;;;10.26;71.48
29239;BME280;16267;48.194;11.546;2022-12-24T14:59:59;96100.72;;;10.32;71.53
29239;BME280;16267;48.194;11.546;2022-12-24T15:02:46;96103.78;;;10.31;71.07
29239;BME280;16267;48.194;11.546;2022-12-24T15:05:24;96103.84;;;10.23;71.23
29239;BME280;16267;48.194;11.546;2022-12-24T15:08:00;96103.41;;;10.25;71.47
29239;BME280;16267;48.194;11.546;2022-12-24T15:10:35;96105.34;;;10.28;71.89